createdAt,value
2018-04-02T00:00:17.949Z,810.38
2018-04-02T00:01:17.956Z,810.38
2018-04-02T00:02:17.956Z,810.38
2018-04-02T00:03:17.962Z,810.35
2018-04-02T00:04:17.966Z,810.32
2018-04-02T00:05:17.970Z,810.36
2018-04-02T00:06:17.975Z,810.33
2018-04-02T00:07:17.978Z,810.33
2018-04-02T00:08:17.984Z,810.36
2018-04-02T00:09:17.986Z,810.34
2018-04-02T00:10:17.991Z,810.32
2018-04-02T00:11:17.995Z,810.31
2018-04-02T00:12:18.001Z,810.29
2018-04-02T00:13:18.008Z,810.33
2018-04-02T00:14:18.008Z,810.32
2018-04-02T00:15:18.012Z,810.27
2018-04-02T00:16:18.058Z,810.28
2018-04-02T00:17:18.022Z,810.26
2018-04-02T00:18:18.024Z,810.27
2018-04-02T00:19:18.028Z,810.21
2018-04-02T00:20:18.042Z,810.20
2018-04-02T00:21:18.035Z,810.18
2018-04-02T00:22:18.042Z,810.18
2018-04-02T00:23:18.047Z,810.22
2018-04-02T00:24:18.052Z,810.23
2018-04-02T00:25:18.066Z,810.25
2018-04-02T00:26:18.060Z,810.25
2018-04-02T00:27:18.064Z,810.24
2018-04-02T00:28:18.068Z,810.21
2018-04-02T00:29:18.070Z,810.20
2018-04-02T00:30:18.077Z,810.18
2018-04-02T00:31:18.078Z,810.21
2018-04-02T00:32:18.095Z,810.15
2018-04-02T00:33:18.089Z,810.17
2018-04-02T00:34:18.094Z,810.16
2018-04-02T00:35:18.097Z,810.13
2018-04-02T00:36:18.102Z,810.19
2018-04-02T00:37:18.105Z,810.15
2018-04-02T00:38:18.111Z,810.10
2018-04-02T00:39:18.113Z,810.12
2018-04-02T00:40:18.118Z,810.14
2018-04-02T00:41:18.123Z,810.12
2018-04-02T00:42:18.124Z,810.09
2018-04-02T00:43:18.130Z,810.09
2018-04-02T00:44:18.134Z,810.10
2018-04-02T00:45:18.138Z,810.10
2018-04-02T00:46:18.143Z,810.13
2018-04-02T00:47:18.147Z,810.09
2018-04-02T00:48:18.149Z,810.06
2018-04-02T00:49:18.153Z,810.06
2018-04-02T00:50:18.164Z,810.05
2018-04-02T00:51:18.163Z,810.06
2018-04-02T00:52:18.167Z,810.07
2018-04-02T00:53:18.170Z,810.05
2018-04-02T00:54:18.174Z,810.03
2018-04-02T00:55:18.180Z,810.08
2018-04-02T00:56:18.183Z,810.05
2018-04-02T00:57:18.188Z,810.04
2018-04-02T00:58:18.192Z,810.01
2018-04-02T00:59:18.194Z,810.00
2018-04-02T01:00:18.198Z,810.03
2018-04-02T01:01:18.202Z,810.03
2018-04-02T01:02:18.207Z,810.09
2018-04-02T01:03:18.215Z,810.10
2018-04-02T01:04:18.215Z,810.10
2018-04-02T01:05:18.252Z,810.11
2018-04-02T01:06:18.222Z,810.09
2018-04-02T01:07:18.225Z,810.07
2018-04-02T01:08:18.230Z,810.07
2018-04-02T01:09:18.233Z,810.09
2018-04-02T01:10:18.237Z,810.05
2018-04-02T01:11:18.252Z,810.06
2018-04-02T01:12:18.248Z,810.10
2018-04-02T01:13:18.253Z,810.12
2018-04-02T01:14:18.256Z,810.10
2018-04-02T01:15:18.259Z,810.06
2018-04-02T01:16:18.261Z,810.01
2018-04-02T01:17:18.264Z,810.03
2018-04-02T01:18:18.266Z,809.95
2018-04-02T01:19:18.272Z,809.96
2018-04-02T01:20:18.336Z,809.92
2018-04-02T01:21:18.281Z,809.92
2018-04-02T01:22:18.286Z,809.88
2018-04-02T01:23:18.288Z,809.91
2018-04-02T01:24:18.290Z,809.93
2018-04-02T01:25:18.292Z,809.91
2018-04-02T01:26:18.298Z,809.93
2018-04-02T01:27:18.301Z,809.93
2018-04-02T01:28:18.304Z,809.95
2018-04-02T01:29:18.310Z,809.91
2018-04-02T01:30:18.311Z,809.97
2018-04-02T01:31:18.317Z,809.92
2018-04-02T01:32:18.320Z,809.92
2018-04-02T01:33:18.323Z,809.89
2018-04-02T01:34:18.327Z,809.92
2018-04-02T01:35:18.332Z,809.88
2018-04-02T01:36:18.338Z,809.90
2018-04-02T01:37:18.340Z,809.90
2018-04-02T01:38:18.344Z,809.87
2018-04-02T01:39:18.349Z,809.89
2018-04-02T01:40:18.356Z,809.91
2018-04-02T01:41:18.356Z,809.95
2018-04-02T01:42:18.358Z,809.95
2018-04-02T01:43:18.365Z,809.93
2018-04-02T01:44:18.367Z,809.90
2018-04-02T01:45:18.369Z,809.94
2018-04-02T01:46:18.374Z,809.94
2018-04-02T01:47:18.378Z,809.92
2018-04-02T01:48:18.382Z,809.94
2018-04-02T01:49:18.386Z,809.95
2018-04-02T01:50:18.389Z,809.96
2018-04-02T01:51:18.394Z,809.97
2018-04-02T01:52:18.398Z,809.98
2018-04-02T01:53:18.400Z,809.97
2018-04-02T01:54:18.408Z,810.00
2018-04-02T01:55:18.411Z,809.96
2018-04-02T01:56:18.414Z,809.97
2018-04-02T01:57:18.420Z,809.98
2018-04-02T01:58:18.439Z,809.99
2018-04-02T01:59:18.426Z,809.97
2018-04-02T02:00:18.432Z,810.01
2018-04-02T02:01:18.433Z,809.98
2018-04-02T02:02:18.437Z,810.00
2018-04-02T02:03:18.442Z,809.97
2018-04-02T02:04:18.448Z,809.97
2018-04-02T02:05:18.451Z,809.96
2018-04-02T02:06:18.455Z,809.98
2018-04-02T02:07:18.460Z,809.95
2018-04-02T02:08:18.463Z,809.96
2018-04-02T02:09:18.467Z,809.97
2018-04-02T02:10:18.471Z,809.99
2018-04-02T02:11:18.474Z,809.99
2018-04-02T02:12:18.479Z,809.95
2018-04-02T02:13:18.485Z,809.96
2018-04-02T02:14:18.487Z,809.91
2018-04-02T02:15:18.493Z,809.92
2018-04-02T02:16:18.499Z,809.90
2018-04-02T02:17:18.499Z,809.91
2018-04-02T02:18:18.505Z,809.89
2018-04-02T02:19:18.508Z,809.92
2018-04-02T02:20:18.513Z,809.92
2018-04-02T02:21:18.517Z,809.90
2018-04-02T02:22:18.519Z,809.91
2018-04-02T02:23:18.537Z,809.90
2018-04-02T02:24:18.529Z,809.91
2018-04-02T02:25:18.532Z,809.87
2018-04-02T02:26:18.539Z,809.85
2018-04-02T02:27:18.541Z,809.86
2018-04-02T02:28:18.544Z,809.86
2018-04-02T02:29:18.549Z,809.85
2018-04-02T02:30:18.555Z,809.87
2018-04-02T02:31:18.559Z,809.83
2018-04-02T02:32:18.564Z,809.80
2018-04-02T02:33:18.572Z,809.77
2018-04-02T02:34:18.572Z,809.79
2018-04-02T02:35:18.576Z,809.78
2018-04-02T02:36:18.581Z,809.81
2018-04-02T02:37:18.585Z,809.81
2018-04-02T02:38:18.596Z,809.82
2018-04-02T02:39:18.593Z,809.80
2018-04-02T02:40:18.598Z,809.80
2018-04-02T02:41:18.601Z,809.76
2018-04-02T02:42:18.611Z,809.79
2018-04-02T02:43:18.629Z,809.77
2018-04-02T02:44:18.618Z,809.76
2018-04-02T02:45:18.619Z,809.74
2018-04-02T02:46:18.623Z,809.73
2018-04-02T02:47:18.629Z,809.72
2018-04-02T02:48:18.633Z,809.67
2018-04-02T02:49:18.638Z,809.67
2018-04-02T02:50:18.641Z,809.72
2018-04-02T02:51:18.646Z,809.71
2018-04-02T02:52:18.650Z,809.73
2018-04-02T02:53:18.654Z,809.72
2018-04-02T02:54:18.659Z,809.73
2018-04-02T02:55:18.670Z,809.73
2018-04-02T02:56:18.669Z,809.68
2018-04-02T02:57:18.677Z,809.70
2018-04-02T02:58:18.679Z,809.66
2018-04-02T02:59:18.682Z,809.68
2018-04-02T03:00:18.687Z,809.68
2018-04-02T03:01:18.690Z,809.66
2018-04-02T03:02:18.697Z,809.68
2018-04-02T03:03:18.706Z,809.69
2018-04-02T03:04:18.704Z,809.71
2018-04-02T03:05:18.709Z,809.71
2018-04-02T03:06:18.715Z,809.68
2018-04-02T03:07:18.718Z,809.59
2018-04-02T03:08:18.725Z,809.63
2018-04-02T03:09:18.727Z,809.61
2018-04-02T03:10:18.731Z,809.58
2018-04-02T03:11:18.737Z,809.57
2018-04-02T03:12:18.741Z,809.52
2018-04-02T03:13:18.745Z,809.50
2018-04-02T03:14:18.751Z,809.47
2018-04-02T03:15:18.754Z,809.45
2018-04-02T03:16:18.760Z,809.44
2018-04-02T03:17:18.763Z,809.46
2018-04-02T03:18:18.769Z,809.44
2018-04-02T03:19:18.773Z,809.42
2018-04-02T03:20:18.780Z,809.44
2018-04-02T03:21:18.785Z,809.42
2018-04-02T03:22:18.788Z,809.41
2018-04-02T03:23:18.793Z,809.39
2018-04-02T03:24:18.800Z,809.40
2018-04-02T03:25:18.801Z,809.39
2018-04-02T03:26:18.807Z,809.45
2018-04-02T03:27:18.815Z,809.47
2018-04-02T03:28:18.818Z,809.49
2018-04-02T03:29:18.822Z,809.49
2018-04-02T03:30:18.827Z,809.45
2018-04-02T03:31:18.833Z,809.50
2018-04-02T03:32:18.837Z,809.49
2018-04-02T03:33:18.841Z,809.50
2018-04-02T03:34:18.846Z,809.47
2018-04-02T03:35:18.851Z,809.45
2018-04-02T03:36:18.856Z,809.43
2018-04-02T03:37:18.859Z,809.42
2018-04-02T03:38:18.869Z,809.37
2018-04-02T03:39:18.871Z,809.33
2018-04-02T03:40:18.876Z,809.36
2018-04-02T03:41:18.881Z,809.34
2018-04-02T03:42:18.884Z,809.35
2018-04-02T03:43:18.889Z,809.30
2018-04-02T03:44:18.895Z,809.30
2018-04-02T03:45:18.898Z,809.26
2018-04-02T03:46:18.906Z,809.25
2018-04-02T03:47:18.909Z,809.30
2018-04-02T03:48:18.914Z,809.32
2018-04-02T03:49:18.918Z,809.28
2018-04-02T03:50:18.924Z,809.33
2018-04-02T03:51:18.930Z,809.30
2018-04-02T03:52:18.935Z,809.27
2018-04-02T03:53:18.940Z,809.27
2018-04-02T03:54:18.946Z,809.30
2018-04-02T03:55:18.953Z,809.29
2018-04-02T03:56:18.962Z,809.25
2018-04-02T03:57:18.959Z,809.27
2018-04-02T03:58:18.964Z,809.28
2018-04-02T03:59:18.971Z,809.26
2018-04-02T04:00:18.975Z,809.29
2018-04-02T04:01:18.979Z,809.25
2018-04-02T04:02:18.984Z,809.25
2018-04-02T04:03:18.988Z,809.24
2018-04-02T04:04:18.996Z,809.24
2018-04-02T04:05:18.998Z,809.22
2018-04-02T04:06:19.003Z,809.21
2018-04-02T04:07:19.010Z,809.22
2018-04-02T04:08:19.015Z,809.24
2018-04-02T04:09:19.024Z,809.27
2018-04-02T04:10:19.026Z,809.27
2018-04-02T04:11:19.029Z,809.27
2018-04-02T04:12:19.033Z,809.27
2018-04-02T04:13:19.036Z,809.27
2018-04-02T04:14:19.046Z,809.21
2018-04-02T04:15:19.049Z,809.18
2018-04-02T04:16:19.054Z,809.19
2018-04-02T04:17:19.062Z,809.19
2018-04-02T04:18:19.064Z,809.14
2018-04-02T04:19:19.069Z,809.19
2018-04-02T04:20:19.073Z,809.15
2018-04-02T04:21:19.079Z,809.16
2018-04-02T04:22:19.085Z,809.10
2018-04-02T04:23:19.088Z,809.09
2018-04-02T04:24:19.093Z,809.06
2018-04-02T04:25:19.098Z,809.10
2018-04-02T04:26:19.104Z,809.07
2018-04-02T04:27:19.109Z,809.01
2018-04-02T04:28:19.116Z,809.01
2018-04-02T04:29:19.117Z,809.04
2018-04-02T04:30:19.122Z,809.08
2018-04-02T04:31:21.283Z,809.09
2018-04-02T04:32:19.156Z,809.08
2018-04-02T04:33:19.137Z,809.09
2018-04-02T04:34:19.145Z,809.11
2018-04-02T04:35:19.214Z,809.12
2018-04-02T04:36:19.156Z,809.08
2018-04-02T04:37:19.160Z,809.09
2018-04-02T04:38:19.164Z,809.11
2018-04-02T04:39:19.168Z,809.11
2018-04-02T04:40:19.230Z,809.15
2018-04-02T04:41:19.179Z,809.11
2018-04-02T04:42:19.185Z,809.09
2018-04-02T04:43:19.189Z,809.11
2018-04-02T04:44:19.198Z,809.13
2018-04-02T04:45:19.200Z,809.12
2018-04-02T04:46:19.207Z,809.11
2018-04-02T04:47:19.238Z,809.09
2018-04-02T04:48:19.216Z,809.12
2018-04-02T04:49:19.224Z,809.16
2018-04-02T04:50:19.227Z,809.22
2018-04-02T04:51:19.230Z,809.21
2018-04-02T04:52:19.236Z,809.25
2018-04-02T04:53:19.242Z,809.28
2018-04-02T04:54:19.246Z,809.27
2018-04-02T04:55:19.253Z,809.24
2018-04-02T04:56:19.257Z,809.21
2018-04-02T04:57:19.264Z,809.24
2018-04-02T04:58:19.267Z,809.26
2018-04-02T04:59:19.275Z,809.29
2018-04-02T05:00:19.278Z,809.27
2018-04-02T05:01:19.284Z,809.25
2018-04-02T05:02:19.293Z,809.26
2018-04-02T05:03:19.295Z,809.25
2018-04-02T05:04:19.300Z,809.21
2018-04-02T05:05:19.305Z,809.25
2018-04-02T05:06:19.310Z,809.24
2018-04-02T05:07:19.316Z,809.27
2018-04-02T05:08:19.322Z,809.22
2018-04-02T05:09:19.324Z,809.20
2018-04-02T05:10:19.336Z,809.24
2018-04-02T05:11:19.337Z,809.22
2018-04-02T05:12:19.368Z,809.18
2018-04-02T05:13:19.346Z,809.20
2018-04-02T05:14:19.352Z,809.13
2018-04-02T05:15:19.382Z,809.13
2018-04-02T05:16:19.362Z,809.16
2018-04-02T05:17:19.367Z,809.10
2018-04-02T05:18:19.376Z,809.11
2018-04-02T05:19:19.379Z,809.09
2018-04-02T05:20:19.390Z,809.03
2018-04-02T05:21:19.393Z,809.12
2018-04-02T05:22:19.395Z,809.09
2018-04-02T05:23:19.401Z,809.10
2018-04-02T05:24:19.412Z,809.16
2018-04-02T05:25:19.412Z,809.13
2018-04-02T05:26:19.414Z,809.16
2018-04-02T05:27:19.420Z,809.19
2018-04-02T05:28:19.429Z,809.20
2018-04-02T05:29:19.430Z,809.21
2018-04-02T05:30:19.435Z,809.20
2018-04-02T05:31:19.442Z,809.18
2018-04-02T05:32:19.448Z,809.19
2018-04-02T05:33:19.453Z,809.23
2018-04-02T05:34:19.457Z,809.25
2018-04-02T05:35:19.463Z,809.25
2018-04-02T05:36:19.469Z,809.27
2018-04-02T05:37:19.475Z,809.24
2018-04-02T05:38:19.478Z,809.27
2018-04-02T05:39:19.486Z,809.27
2018-04-02T05:40:19.492Z,809.29
2018-04-02T05:41:19.496Z,809.34
2018-04-02T05:42:19.502Z,809.36
2018-04-02T05:43:19.506Z,809.36
2018-04-02T05:44:19.511Z,809.37
2018-04-02T05:45:19.549Z,809.39
2018-04-02T05:46:19.522Z,809.40
2018-04-02T05:47:19.529Z,809.36
2018-04-02T05:48:19.535Z,809.36
2018-04-02T05:49:19.539Z,809.38
2018-04-02T05:50:19.545Z,809.32
2018-04-02T05:51:19.551Z,809.31
2018-04-02T05:52:19.556Z,809.31
2018-04-02T05:53:19.561Z,809.27
2018-04-02T05:54:19.567Z,809.31
2018-04-02T05:55:19.573Z,809.26
2018-04-02T05:56:19.580Z,809.28
2018-04-02T05:57:19.585Z,809.28
2018-04-02T05:58:19.590Z,809.28
2018-04-02T05:59:19.596Z,809.27
2018-04-02T06:00:19.602Z,809.35
2018-04-02T06:01:19.606Z,809.36
2018-04-02T06:02:19.614Z,809.32
2018-04-02T06:03:19.617Z,809.36
2018-04-02T06:04:19.625Z,809.37
2018-04-02T06:05:19.629Z,809.44
2018-04-02T06:06:19.634Z,809.42
2018-04-02T06:07:19.640Z,809.41
2018-04-02T06:08:19.649Z,809.46
2018-04-02T06:09:19.655Z,809.46
2018-04-02T06:10:19.662Z,809.45
2018-04-02T06:11:19.662Z,809.48
2018-04-02T06:12:19.668Z,809.48
2018-04-02T06:13:19.680Z,809.41
2018-04-02T06:14:19.681Z,809.44
2018-04-02T06:15:19.691Z,809.40
2018-04-02T06:16:19.707Z,809.37
2018-04-02T06:17:19.698Z,809.41
2018-04-02T06:18:19.708Z,809.40
2018-04-02T06:19:19.709Z,809.43
2018-04-02T06:20:19.720Z,809.42
2018-04-02T06:21:19.720Z,809.46
2018-04-02T06:22:19.749Z,809.46
2018-04-02T06:23:19.738Z,809.46
2018-04-02T06:24:19.743Z,809.46
2018-04-02T06:25:19.748Z,809.48
2018-04-02T06:26:19.750Z,809.44
2018-04-02T06:27:19.767Z,809.47
2018-04-02T06:28:19.762Z,809.45
2018-04-02T06:29:19.768Z,809.51
2018-04-02T06:30:19.794Z,809.49
2018-04-02T06:31:19.780Z,809.50
2018-04-02T06:32:19.785Z,809.50
2018-04-02T06:33:19.791Z,809.51
2018-04-02T06:34:19.797Z,809.48
2018-04-02T06:35:19.804Z,809.50
2018-04-02T06:36:19.809Z,809.49
2018-04-02T06:37:19.814Z,809.51
2018-04-02T06:38:19.821Z,809.51
2018-04-02T06:39:19.833Z,809.49
2018-04-02T06:40:19.835Z,809.49
2018-04-02T06:41:19.840Z,809.52
2018-04-02T06:42:19.846Z,809.55
2018-04-02T06:43:19.853Z,809.54
2018-04-02T06:44:19.859Z,809.54
2018-04-02T06:45:19.863Z,809.56
2018-04-02T06:46:19.871Z,809.58
2018-04-02T06:47:19.877Z,809.59
2018-04-02T06:48:19.883Z,809.61
2018-04-02T06:49:19.891Z,809.57
2018-04-02T06:50:19.896Z,809.60
2018-04-02T06:51:19.904Z,809.55
2018-04-02T06:52:19.910Z,809.56
2018-04-02T06:53:19.916Z,809.54
2018-04-02T06:54:19.923Z,809.49
2018-04-02T06:55:19.929Z,809.54
2018-04-02T06:56:19.939Z,809.50
2018-04-02T06:57:19.948Z,809.50
2018-04-02T06:58:19.951Z,809.54
2018-04-02T06:59:19.961Z,809.53
2018-04-02T07:00:19.964Z,809.55
2018-04-02T07:01:19.969Z,809.59
2018-04-02T07:02:19.977Z,809.55
2018-04-02T07:03:19.987Z,809.54
2018-04-02T07:04:19.997Z,809.52
2018-04-02T07:05:19.996Z,809.54
2018-04-02T07:06:20.006Z,809.57
2018-04-02T07:07:20.010Z,809.58
2018-04-02T07:08:20.017Z,809.60
2018-04-02T07:09:20.026Z,809.57
2018-04-02T07:10:20.032Z,809.55
2018-04-02T07:11:20.037Z,809.56
2018-04-02T07:12:20.044Z,809.58
2018-04-02T07:13:20.049Z,809.62
2018-04-02T07:14:20.059Z,809.61
2018-04-02T07:15:20.064Z,809.65
2018-04-02T07:16:20.075Z,809.61
2018-04-02T07:17:20.102Z,809.59
2018-04-02T07:18:20.088Z,809.60
2018-04-02T07:19:20.091Z,809.64
2018-04-02T07:20:20.100Z,809.62
2018-04-02T07:21:20.105Z,809.67
2018-04-02T07:22:20.111Z,809.62
2018-04-02T07:23:20.120Z,809.58
2018-04-02T07:24:20.126Z,809.59
2018-04-02T07:25:20.133Z,809.56
2018-04-02T07:26:20.141Z,809.61
2018-04-02T07:27:20.151Z,809.56
2018-04-02T07:28:20.156Z,809.61
2018-04-02T07:29:20.162Z,809.59
2018-04-02T07:30:20.169Z,809.57
2018-04-02T07:31:20.180Z,809.62
2018-04-02T07:32:20.183Z,809.64
2018-04-02T07:33:20.190Z,809.68
2018-04-02T07:34:20.198Z,809.68
2018-04-02T07:35:20.209Z,809.70
2018-04-02T07:36:20.214Z,809.66
2018-04-02T07:37:20.250Z,809.66
2018-04-02T07:38:20.229Z,809.72
2018-04-02T07:39:20.233Z,809.72
2018-04-02T07:40:20.242Z,809.72
2018-04-02T07:41:20.247Z,809.72
2018-04-02T07:42:20.256Z,809.73
2018-04-02T07:43:20.264Z,809.76
2018-04-02T07:44:20.330Z,809.77
2018-04-02T07:45:20.278Z,809.82
2018-04-02T07:46:20.289Z,809.86
2018-04-02T07:47:20.295Z,809.87
2018-04-02T07:48:20.304Z,809.87
2018-04-02T07:49:20.308Z,809.82
2018-04-02T07:50:20.315Z,809.84
2018-04-02T07:51:20.323Z,809.86
2018-04-02T07:52:20.333Z,809.87
2018-04-02T07:53:20.339Z,809.88
2018-04-02T07:54:20.348Z,809.95
2018-04-02T07:55:20.355Z,809.92
2018-04-02T07:56:20.366Z,809.92
2018-04-02T07:57:20.370Z,809.91
2018-04-02T07:58:20.379Z,809.91
2018-04-02T07:59:20.389Z,809.87
2018-04-02T08:00:20.395Z,809.90
2018-04-02T08:01:20.403Z,809.90
2018-04-02T08:02:20.412Z,809.92
2018-04-02T08:03:20.419Z,809.94
2018-04-02T08:04:20.488Z,809.92
2018-04-02T08:05:20.438Z,809.91
2018-04-02T08:06:20.443Z,809.92
2018-04-02T08:07:20.454Z,809.92
2018-04-02T08:08:20.463Z,809.94
2018-04-02T08:09:20.470Z,809.90
2018-04-02T08:10:20.481Z,809.91
2018-04-02T08:11:20.489Z,809.93
2018-04-02T08:12:20.499Z,809.91
2018-04-02T08:13:20.508Z,809.92
2018-04-02T08:14:20.514Z,809.90
2018-04-02T08:15:20.533Z,809.92
2018-04-02T08:16:20.531Z,809.92
2018-04-02T08:17:20.540Z,809.92
2018-04-02T08:18:20.550Z,809.90
2018-04-02T08:19:20.559Z,809.89
2018-04-02T08:20:20.569Z,809.90
2018-04-02T08:21:20.588Z,809.93
2018-04-02T08:22:20.586Z,809.91
2018-04-02T08:23:20.594Z,809.96
2018-04-02T08:24:20.604Z,809.96
2018-04-02T08:25:20.668Z,809.96
2018-04-02T08:26:20.619Z,810.02
2018-04-02T08:27:20.630Z,810.05
2018-04-02T08:28:20.693Z,810.01
2018-04-02T08:29:20.647Z,810.03
2018-04-02T08:30:20.657Z,810.00
2018-04-02T08:31:20.666Z,810.05
2018-04-02T08:32:20.675Z,810.03
2018-04-02T08:33:20.688Z,810.07
2018-04-02T08:34:20.698Z,810.10
2018-04-02T08:35:20.706Z,810.11
2018-04-02T08:36:20.713Z,810.07
2018-04-02T08:37:20.723Z,810.13
2018-04-02T08:38:20.732Z,810.13
2018-04-02T08:39:20.743Z,810.18
2018-04-02T08:40:20.750Z,810.18
2018-04-02T08:41:20.760Z,810.17
2018-04-02T08:42:20.769Z,810.16
2018-04-02T08:43:20.780Z,810.21
2018-04-02T08:44:20.822Z,810.21
2018-04-02T08:45:20.802Z,810.27
2018-04-02T08:46:20.811Z,810.21
2018-04-02T08:47:20.821Z,810.13
2018-04-02T08:48:20.831Z,810.13
2018-04-02T08:49:20.838Z,810.13
2018-04-02T08:50:20.850Z,810.14
2018-04-02T08:51:20.858Z,810.18
2018-04-02T08:52:20.870Z,810.20
2018-04-02T08:53:20.877Z,810.13
2018-04-02T08:54:20.886Z,810.14
2018-04-02T08:55:20.898Z,810.19
2018-04-02T08:56:20.907Z,810.20
2018-04-02T08:57:20.917Z,810.24
2018-04-02T08:58:20.929Z,810.19
2018-04-02T08:59:20.938Z,810.21
2018-04-02T09:00:20.952Z,810.17
2018-04-02T09:01:20.957Z,810.22
2018-04-02T09:02:20.971Z,810.22
2018-04-02T09:03:20.990Z,810.26
2018-04-02T09:04:20.988Z,810.26
2018-04-02T09:05:20.999Z,810.21
2018-04-02T09:06:21.012Z,810.22
2018-04-02T09:07:21.021Z,810.22
2018-04-02T09:08:21.030Z,810.27
2018-04-02T09:09:21.039Z,810.24
2018-04-02T09:10:21.050Z,810.24
2018-04-02T09:11:21.061Z,810.27
2018-04-02T09:12:21.072Z,810.32
2018-04-02T09:13:21.082Z,810.30
2018-04-02T09:14:21.100Z,810.31
2018-04-02T09:15:21.106Z,810.28
2018-04-02T09:16:21.114Z,810.26
2018-04-02T09:17:21.125Z,810.26
2018-04-02T09:18:21.136Z,810.26
2018-04-02T09:19:21.148Z,810.22
2018-04-02T09:20:21.162Z,810.22
2018-04-02T09:21:21.170Z,810.23
2018-04-02T09:22:21.186Z,810.21
2018-04-02T09:23:21.191Z,810.25
2018-04-02T09:24:21.200Z,810.23
2018-04-02T09:25:21.213Z,810.28
2018-04-02T09:26:21.224Z,810.24
2018-04-02T09:27:21.243Z,810.26
2018-04-02T09:28:21.244Z,810.20
2018-04-02T09:29:21.254Z,810.20
2018-04-02T09:30:21.265Z,810.23
2018-04-02T09:31:21.279Z,810.26
2018-04-02T09:32:21.289Z,810.20
2018-04-02T09:33:21.301Z,810.19
2018-04-02T09:34:21.313Z,810.21
2018-04-02T09:35:21.321Z,810.22
2018-04-02T09:36:21.333Z,810.21
2018-04-02T09:37:21.344Z,810.21
2018-04-02T09:38:21.357Z,810.25
2018-04-02T09:39:21.368Z,810.20
2018-04-02T09:40:21.381Z,810.18
2018-04-02T09:41:21.389Z,810.18
2018-04-02T09:42:21.411Z,810.21
2018-04-02T09:43:21.414Z,810.24
2018-04-02T09:44:21.426Z,810.18
2018-04-02T09:45:21.437Z,810.18
2018-04-02T09:46:21.457Z,810.19
2018-04-02T09:47:21.459Z,810.15
2018-04-02T09:48:21.472Z,810.15
2018-04-02T09:49:21.482Z,810.23
2018-04-02T09:50:21.495Z,810.23
2018-04-02T09:51:21.508Z,810.22
2018-04-02T09:52:21.521Z,810.20
2018-04-02T09:53:21.533Z,810.21
2018-04-02T09:54:21.546Z,810.24
2018-04-02T09:55:21.556Z,810.27
2018-04-02T09:56:21.582Z,810.23
2018-04-02T09:57:21.579Z,810.24
2018-04-02T09:58:21.592Z,810.22
2018-04-02T09:59:21.686Z,810.20
2018-04-02T10:00:21.616Z,810.19
2018-04-02T10:01:21.628Z,810.22
2018-04-02T10:02:21.677Z,810.21
2018-04-02T10:03:21.653Z,810.16
2018-04-02T10:04:21.668Z,810.14
2018-04-02T10:05:21.681Z,810.15
2018-04-02T10:06:21.734Z,810.22
2018-04-02T10:07:21.706Z,810.15
2018-04-02T10:08:21.719Z,810.17
2018-04-02T10:09:21.732Z,810.13
2018-04-02T10:10:21.839Z,810.18
2018-04-02T10:11:21.759Z,810.19
2018-04-02T10:12:21.770Z,810.13
2018-04-02T10:13:21.783Z,810.13
2018-04-02T10:14:21.798Z,810.14
2018-04-02T10:15:21.813Z,810.14
2018-04-02T10:16:21.826Z,810.17
2018-04-02T10:17:21.844Z,810.15
2018-04-02T10:18:21.852Z,810.17
2018-04-02T10:19:21.873Z,810.12
2018-04-02T10:20:21.882Z,810.11
2018-04-02T10:21:21.894Z,810.11
2018-04-02T10:22:21.910Z,810.10
2018-04-02T10:23:21.926Z,809.98
2018-04-02T10:24:21.939Z,810.01
2018-04-02T10:25:21.951Z,810.01
2018-04-02T10:26:21.971Z,810.00
2018-04-02T10:27:21.981Z,809.98
2018-04-02T10:28:21.995Z,810.02
2018-04-02T10:29:22.011Z,810.01
2018-04-02T10:30:22.025Z,810.04
2018-04-02T10:31:22.043Z,810.03
2018-04-02T10:32:22.061Z,810.07
2018-04-02T10:33:22.071Z,810.03
2018-04-02T10:34:22.090Z,810.01
2018-04-02T10:35:22.107Z,810.02
2018-04-02T10:36:22.117Z,809.97
2018-04-02T10:37:22.131Z,809.97
2018-04-02T10:38:22.146Z,809.97
2018-04-02T10:39:22.161Z,809.98
2018-04-02T10:40:22.178Z,809.97
2018-04-02T10:41:22.197Z,809.89
2018-04-02T10:42:22.271Z,809.89
2018-04-02T10:43:22.271Z,809.86
2018-04-02T10:44:22.237Z,809.89
2018-04-02T10:45:22.257Z,809.87
2018-04-02T10:46:22.270Z,809.89
2018-04-02T10:47:22.283Z,809.88
2018-04-02T10:48:22.303Z,809.87
2018-04-02T10:49:22.316Z,809.89
2018-04-02T10:50:22.329Z,809.86
2018-04-02T10:51:22.347Z,809.85
2018-04-02T10:52:22.367Z,809.86
2018-04-02T10:53:22.375Z,809.84
2018-04-02T10:54:22.391Z,809.85
2018-04-02T10:55:22.408Z,809.81
2018-04-02T10:56:22.424Z,809.80
2018-04-02T10:57:22.440Z,809.80
2018-04-02T10:58:22.454Z,809.75
2018-04-02T10:59:22.470Z,809.79
2018-04-02T11:00:22.490Z,809.79
2018-04-02T11:01:22.553Z,809.80
2018-04-02T11:02:22.517Z,809.79
2018-04-02T11:03:22.532Z,809.78
2018-04-02T11:04:22.575Z,809.78
2018-04-02T11:05:22.564Z,809.78
2018-04-02T11:06:22.583Z,809.82
2018-04-02T11:07:22.596Z,809.82
2018-04-02T11:08:22.614Z,809.83
2018-04-02T11:09:22.629Z,809.81
2018-04-02T11:10:22.685Z,809.81
2018-04-02T11:11:22.663Z,809.78
2018-04-02T11:12:22.676Z,809.81
2018-04-02T11:13:22.693Z,809.81
2018-04-02T11:14:22.710Z,809.78
2018-04-02T11:15:22.724Z,809.75
2018-04-02T11:16:22.742Z,809.77
2018-04-02T11:17:22.758Z,809.77
2018-04-02T11:18:22.776Z,809.74
2018-04-02T11:19:22.792Z,809.76
2018-04-02T11:20:22.809Z,809.82
2018-04-02T11:21:22.826Z,809.85
2018-04-02T11:22:22.844Z,809.81
2018-04-02T11:23:22.859Z,809.78
2018-04-02T11:24:22.878Z,809.80
2018-04-02T11:25:22.891Z,809.80
2018-04-02T11:26:22.912Z,809.78
2018-04-02T11:27:22.928Z,809.80
2018-04-02T11:28:22.943Z,809.78
2018-04-02T11:29:22.962Z,809.74
2018-04-02T11:30:22.975Z,809.75
2018-04-02T11:31:22.993Z,809.74
2018-04-02T11:32:23.010Z,809.71
2018-04-02T11:33:23.025Z,809.69
2018-04-02T11:34:23.045Z,809.71
2018-04-02T11:35:23.065Z,809.68
2018-04-02T11:36:23.077Z,809.69
2018-04-02T11:37:23.097Z,809.67
2018-04-02T11:38:23.109Z,809.67
2018-04-02T11:39:23.136Z,809.66
2018-04-02T11:40:23.149Z,809.69
2018-04-02T11:41:23.160Z,809.71
2018-04-02T11:42:23.178Z,809.65
2018-04-02T11:43:23.194Z,809.72
2018-04-02T11:44:23.210Z,809.72
2018-04-02T11:45:23.233Z,809.68
2018-04-02T11:46:23.244Z,809.67
2018-04-02T11:47:23.261Z,809.67
2018-04-02T11:48:23.278Z,809.64
2018-04-02T11:49:23.306Z,809.63
2018-04-02T11:50:23.310Z,809.63
2018-04-02T11:51:23.328Z,809.61
2018-04-02T11:52:23.346Z,809.63
2018-04-02T11:53:23.363Z,809.65
2018-04-02T11:54:23.377Z,809.63
2018-04-02T11:55:23.395Z,809.59
2018-04-02T11:56:23.413Z,809.58
2018-04-02T11:57:23.433Z,809.58
2018-04-02T11:58:23.448Z,809.54
2018-04-02T11:59:23.465Z,809.59
2018-04-02T12:00:23.479Z,809.55
2018-04-02T12:01:23.495Z,809.58
2018-04-02T12:02:23.517Z,809.58
2018-04-02T12:03:23.529Z,809.55
2018-04-02T12:04:23.550Z,809.57
2018-04-02T12:05:23.564Z,809.55
2018-04-02T12:06:23.583Z,809.55
2018-04-02T12:07:23.599Z,809.54
2018-04-02T12:08:23.614Z,809.55
2018-04-02T12:09:23.635Z,809.54
2018-04-02T12:10:23.648Z,809.57
2018-04-02T12:11:23.668Z,809.56
2018-04-02T12:12:23.681Z,809.52
2018-04-02T12:13:23.696Z,809.52
2018-04-02T12:14:23.714Z,809.51
2018-04-02T12:15:23.732Z,809.60
2018-04-02T12:16:23.748Z,809.55
2018-04-02T12:17:23.765Z,809.56
2018-04-02T12:18:23.780Z,809.53
2018-04-02T12:19:23.797Z,809.54
2018-04-02T12:20:23.814Z,809.51
2018-04-02T12:21:23.831Z,809.47
2018-04-02T12:22:23.848Z,809.48
2018-04-02T12:23:23.865Z,809.50
2018-04-02T12:24:23.882Z,809.51
2018-04-02T12:25:23.897Z,809.52
2018-04-02T12:26:23.917Z,809.56
2018-04-02T12:27:23.933Z,809.55
2018-04-02T12:28:23.946Z,809.54